createdAt,value
2023-02-15T00:00:19.553Z,99996.95
2023-02-15T00:03:11.814Z,99994.23
2023-02-15T00:05:44.113Z,99989.02
2023-02-15T00:08:16.281Z,99985.10
2023-02-15T00:10:48.664Z,99992.14
2023-02-15T00:13:21.211Z,99994.79
2023-02-15T00:15:53.730Z,99990.14
2023-02-15T00:18:26.093Z,99986.70
2023-02-15T00:20:59.162Z,99985.89
2023-02-15T00:23:31.382Z,99979.85
2023-02-15T00:26:11.828Z,99976.30
2023-02-15T00:28:47.725Z,99972.83
2023-02-15T00:31:22.125Z,99965.35
2023-02-15T00:33:56.780Z,99959.02
2023-02-15T00:36:29.023Z,99960.58
2023-02-15T00:39:05.700Z,99963.69
2023-02-15T00:41:38.612Z,99960.77
2023-02-15T00:44:11.642Z,99955.47
2023-02-15T00:46:44.265Z,99954.89
2023-02-15T00:49:16.738Z,99955.11
2023-02-15T00:51:49.490Z,99953.91
2023-02-15T00:54:22.119Z,99952.09
2023-02-15T00:56:56.237Z,99945.50
2023-02-15T00:59:28.549Z,99946.13
2023-02-15T01:02:00.832Z,99945.81
2023-02-15T01:04:33.607Z,99946.69
2023-02-15T01:07:10.114Z,99939.52
2023-02-15T01:09:44.773Z,99933.36
2023-02-15T01:12:19.501Z,99926.84
2023-02-15T01:14:53.300Z,99924.15
2023-02-15T01:17:25.742Z,99925.42
2023-02-15T01:19:58.537Z,99925.04
2023-02-15T01:22:30.975Z,99921.48
2023-02-15T01:25:03.213Z,99917.02
2023-02-15T01:27:35.608Z,99915.77
2023-02-15T01:30:12.571Z,99913.23
2023-02-15T01:32:45.978Z,99917.70
2023-02-15T01:35:18.363Z,99910.90
2023-02-15T01:37:51.012Z,99912.41
2023-02-15T01:40:28.858Z,99903.34
2023-02-15T01:43:03.389Z,99907.24
2023-02-15T01:45:38.125Z,99907.49
2023-02-15T01:48:21.909Z,99900.39
2023-02-15T01:50:59.749Z,99894.33
2023-02-15T01:53:38.074Z,99890.67
2023-02-15T01:56:17.169Z,99883.30
2023-02-15T01:58:56.356Z,99880.87
2023-02-15T02:01:30.022Z,99875.59
2023-02-15T02:04:09.125Z,99871.84
2023-02-15T02:06:42.156Z,99869.55
2023-02-15T02:09:14.896Z,99864.48
2023-02-15T02:11:50.204Z,99865.84
2023-02-15T02:14:23.141Z,99861.27
2023-02-15T02:17:00.849Z,99856.29
2023-02-15T02:20:16.468Z,99858.67
2023-02-15T02:23:10.361Z,99856.80
2023-02-15T02:25:59.464Z,99853.29
2023-02-15T02:31:48.166Z,99849.52
2023-02-15T02:34:27.900Z,99841.91
2023-02-15T02:37:17.445Z,99842.61
2023-02-15T02:39:57.857Z,99840.17
2023-02-15T02:42:38.184Z,99841.67
2023-02-15T02:45:16.091Z,99840.61
2023-02-15T02:47:56.904Z,99840.69
2023-02-15T02:50:31.768Z,99840.77
2023-02-15T02:53:04.220Z,99845.22
2023-02-15T02:55:42.416Z,99847.20
2023-02-15T02:58:20.010Z,99845.80
2023-02-15T03:00:59.867Z,99844.60
2023-02-15T03:03:39.803Z,99841.14
2023-02-15T03:06:18.915Z,99838.70
2023-02-15T03:08:54.595Z,99841.52
2023-02-15T03:11:27.560Z,99835.87
2023-02-15T03:14:01.356Z,99837.05
2023-02-15T03:16:33.878Z,99838.52
2023-02-15T03:19:10.812Z,99839.60
2023-02-15T03:21:50.555Z,99834.02
2023-02-15T03:24:29.202Z,99834.26
2023-02-15T03:27:05.585Z,99840.52
2023-02-15T03:29:41.889Z,99844.79
2023-02-15T03:32:16.880Z,99847.12
2023-02-15T03:34:52.515Z,99841.75
2023-02-15T03:37:32.200Z,99841.70
2023-02-15T03:40:25.526Z,99841.98
2023-02-15T03:43:04.167Z,99843.61
2023-02-15T03:45:39.002Z,99841.04
2023-02-15T03:48:14.074Z,99839.96
2023-02-15T03:51:04.052Z,99842.69
2023-02-15T03:53:37.311Z,99851.19
2023-02-15T03:56:10.347Z,99851.67
2023-02-15T03:58:59.271Z,99848.84
2023-02-15T04:01:56.937Z,99847.91
2023-02-15T04:04:34.492Z,99849.20
2023-02-15T04:07:11.009Z,99847.86
2023-02-15T04:10:01.012Z,99850.52
2023-02-15T04:12:34.606Z,99851.79
2023-02-15T04:15:25.338Z,99851.73
2023-02-15T04:17:57.567Z,99852.86
2023-02-15T04:20:48.512Z,99854.58
2023-02-15T04:23:38.347Z,99852.11
2023-02-15T04:26:10.631Z,99853.23
2023-02-15T04:28:42.951Z,99854.48
2023-02-15T04:31:15.352Z,99854.16
2023-02-15T04:33:48.853Z,99850.02
2023-02-15T04:36:21.234Z,99851.92
2023-02-15T04:38:55.740Z,99849.66
2023-02-15T04:41:28.013Z,99848.62
2023-02-15T04:44:00.459Z,99847.52
2023-02-15T04:46:33.229Z,99846.91
2023-02-15T04:49:06.696Z,99849.15
2023-02-15T04:51:40.660Z,99848.28
2023-02-15T04:54:12.983Z,99846.70
2023-02-15T04:56:45.706Z,99847.17
2023-02-15T04:59:20.520Z,99849.16
2023-02-15T05:01:52.826Z,99852.36
2023-02-15T05:04:25.229Z,99852.59
2023-02-15T05:06:57.937Z,99857.30
2023-02-15T05:12:43.389Z,99851.50
2023-02-15T05:15:16.016Z,99851.02
2023-02-15T05:17:48.441Z,99846.32
2023-02-15T05:20:21.088Z,99845.61
2023-02-15T05:22:56.841Z,99847.04
2023-02-15T05:25:47.080Z,99843.73
2023-02-15T05:28:22.014Z,99840.00
2023-02-15T05:31:03.311Z,99844.72
2023-02-15T05:33:36.513Z,99843.64
2023-02-15T05:36:10.268Z,99841.63
2023-02-15T05:38:42.860Z,99838.50
2023-02-15T05:41:15.197Z,99840.86
2023-02-15T05:43:50.513Z,99836.20
2023-02-15T05:46:22.789Z,99835.20
2023-02-15T05:48:56.816Z,99833.65
2023-02-15T05:51:32.140Z,99837.31
2023-02-15T05:54:04.465Z,99834.38
2023-02-15T05:56:36.650Z,99832.48
2023-02-15T05:59:09.074Z,99831.66
2023-02-15T06:01:41.459Z,99830.37
2023-02-15T06:04:15.047Z,99833.83
2023-02-15T06:06:47.479Z,99835.93
2023-02-15T06:09:20.812Z,99840.84
2023-02-15T06:11:53.463Z,99842.43
2023-02-15T06:14:25.838Z,99845.39
2023-02-15T06:16:58.044Z,99846.00
2023-02-15T06:19:30.329Z,99846.45
2023-02-15T06:22:03.029Z,99847.42
2023-02-15T06:24:35.290Z,99845.19
2023-02-15T06:27:07.555Z,99845.37
2023-02-15T06:29:40.012Z,99844.77
2023-02-15T06:32:12.731Z,99844.46
2023-02-15T06:34:45.117Z,99842.10
2023-02-15T06:37:19.985Z,99846.95
2023-02-15T06:39:52.416Z,99849.95
2023-02-15T06:42:24.908Z,99850.52
2023-02-15T06:44:57.182Z,99848.15
2023-02-15T06:47:30.320Z,99848.36
2023-02-15T06:50:02.893Z,99850.98
2023-02-15T06:52:35.321Z,99848.02
2023-02-15T06:55:08.620Z,99843.65
2023-02-15T06:57:40.897Z,99839.63
2023-02-15T07:00:18.771Z,99843.08
2023-02-15T07:02:58.725Z,99841.21
2023-02-15T07:05:36.885Z,99837.89
2023-02-15T07:08:10.671Z,99836.13
2023-02-15T07:10:45.376Z,99836.99
2023-02-15T07:13:17.609Z,99835.85
2023-02-15T07:15:52.915Z,99832.52
2023-02-15T07:18:25.288Z,99830.91
2023-02-15T07:20:58.076Z,99832.54
2023-02-15T07:23:30.484Z,99829.73
2023-02-15T07:26:04.168Z,99830.27
2023-02-15T07:28:37.438Z,99827.08
2023-02-15T07:31:10.074Z,99823.85
2023-02-15T07:33:43.166Z,99823.10
2023-02-15T07:36:15.503Z,99816.28
2023-02-15T07:38:47.956Z,99824.05
2023-02-15T07:41:21.044Z,99825.69
2023-02-15T07:43:53.434Z,99823.36
2023-02-15T07:46:26.084Z,99824.83
2023-02-15T07:49:01.083Z,99823.95
2023-02-15T07:51:36.201Z,99816.23
2023-02-15T07:54:10.789Z,99814.31
2023-02-15T07:56:51.469Z,99811.44
2023-02-15T07:59:26.291Z,99805.94
2023-02-15T08:01:59.042Z,99808.11
2023-02-15T08:04:32.337Z,99805.88
2023-02-15T08:07:05.327Z,99803.75
2023-02-15T08:09:37.837Z,99800.61
2023-02-15T08:12:10.533Z,99799.86
2023-02-15T08:14:43.041Z,99795.77
2023-02-15T08:17:15.582Z,99793.92
2023-02-15T08:19:48.937Z,99789.70
2023-02-15T08:22:21.385Z,99794.75
2023-02-15T08:24:55.323Z,99793.71
2023-02-15T08:27:27.905Z,99798.23
2023-02-15T08:30:00.755Z,99795.69
2023-02-15T08:32:33.255Z,99797.41
2023-02-15T08:35:07.587Z,99795.73
2023-02-15T08:37:39.945Z,99797.94
2023-02-15T08:40:14.611Z,99792.52
2023-02-15T08:42:46.882Z,99788.83
2023-02-15T08:45:19.547Z,99789.37
2023-02-15T08:48:04.419Z,99787.41
2023-02-15T08:50:50.162Z,99784.43
2023-02-15T08:53:22.800Z,99782.58
2023-02-15T08:56:00.474Z,99780.58
2023-02-15T08:58:40.127Z,99782.63
2023-02-15T09:01:21.144Z,99777.67
2023-02-15T09:04:05.588Z,99777.23
2023-02-15T09:06:47.633Z,99774.60
2023-02-15T09:09:24.109Z,99774.98
2023-02-15T09:12:00.396Z,99767.38
2023-02-15T09:14:33.422Z,99766.23
2023-02-15T09:17:05.937Z,99771.31
2023-02-15T09:19:38.409Z,99771.89
2023-02-15T09:22:15.068Z,99772.33
2023-02-15T09:24:51.061Z,99773.95
2023-02-15T09:27:23.295Z,99772.67
2023-02-15T09:29:55.745Z,99769.82
2023-02-15T09:32:28.226Z,99770.52
2023-02-15T09:35:00.739Z,99766.64
2023-02-15T09:37:40.268Z,99765.02
2023-02-15T09:40:18.048Z,99764.05
2023-02-15T09:46:26.060Z,99756.56
2023-02-15T09:49:08.451Z,99757.02
2023-02-15T09:52:10.746Z,99753.41
2023-02-15T09:54:58.916Z,99748.28
2023-02-15T09:57:38.817Z,99745.89
2023-02-15T10:00:22.106Z,99741.48
2023-02-15T10:03:13.021Z,99734.84
2023-02-15T10:06:00.130Z,99730.83
2023-02-15T10:08:59.976Z,99725.94
2023-02-15T10:11:43.155Z,99716.88
2023-02-15T10:14:39.410Z,99715.69
2023-02-15T10:17:26.022Z,99711.21
2023-02-15T10:20:12.847Z,99706.63
2023-02-15T10:23:02.593Z,99704.98
2023-02-15T10:25:44.239Z,99694.79
2023-02-15T10:28:20.471Z,99691.53
2023-02-15T10:30:54.399Z,99683.66
2023-02-15T10:33:40.385Z,99679.58
2023-02-15T10:36:30.243Z,99675.76
2023-02-15T10:39:10.278Z,99674.69
2023-02-15T10:41:53.024Z,99657.41
2023-02-15T10:44:42.325Z,99655.41
2023-02-15T10:47:31.952Z,99644.76
2023-02-15T10:50:16.863Z,99640.31
2023-02-15T10:53:07.940Z,99633.30
2023-02-15T10:55:54.184Z,99610.52
2023-02-15T10:58:38.434Z,99576.63
2023-02-15T11:01:22.821Z,99567.05
2023-02-15T11:04:18.572Z,99584.55
2023-02-15T11:06:57.624Z,99561.48
2023-02-15T11:09:39.189Z,99564.14
2023-02-15T11:12:27.747Z,99545.13
2023-02-15T11:15:05.007Z,99483.96
2023-02-15T11:17:43.285Z,99486.35
2023-02-15T11:20:26.500Z,99499.95
2023-02-15T11:22:58.788Z,99503.82
2023-02-15T11:25:34.877Z,99484.07
2023-02-15T11:28:16.208Z,99489.51
2023-02-15T11:30:55.643Z,99448.32
2023-02-15T11:37:02.801Z,99446.20
2023-02-15T11:39:34.362Z,99448.81
2023-02-15T11:42:11.248Z,99419.05
2023-02-15T11:44:48.117Z,99418.54
2023-02-15T11:47:17.043Z,99427.78
2023-02-15T11:49:47.258Z,99455.67
2023-02-15T11:52:19.198Z,99421.18
2023-02-15T11:54:51.034Z,99403.45
2023-02-15T11:57:27.785Z,99392.47
2023-02-15T12:00:04.399Z,99393.92
2023-02-15T12:02:39.360Z,99405.11
2023-02-15T12:05:13.608Z,99402.74
2023-02-15T12:07:47.169Z,99420.04
2023-02-15T12:10:22.908Z,99418.24
2023-02-15T12:13:11.692Z,99411.84
2023-02-15T12:15:44.126Z,99406.15
2023-02-15T12:18:25.909Z,99406.43
2023-02-15T12:20:59.093Z,99405.04
2023-02-15T12:23:30.135Z,99380.99
2023-02-15T12:26:00.316Z,99375.65
2023-02-15T12:28:35.651Z,99365.70
2023-02-15T12:31:18.679Z,99363.41
2023-02-15T12:33:49.194Z,99356.98
2023-02-15T12:36:22.240Z,99350.41
2023-02-15T12:39:18.073Z,99348.60
2023-02-15T12:41:57.758Z,99330.34
2023-02-15T12:44:29.281Z,99322.92
2023-02-15T12:47:00.547Z,99325.49
2023-02-15T12:49:30.739Z,99323.07
2023-02-15T12:52:01.613Z,99302.70
2023-02-15T12:54:40.666Z,99278.09
2023-02-15T12:57:23.510Z,99263.85
2023-02-15T12:59:54.959Z,99272.59
2023-02-15T13:02:27.897Z,99282.20
2023-02-15T13:04:58.371Z,99264.82
2023-02-15T13:07:33.312Z,99235.90
2023-02-15T13:10:02.542Z,99225.27
2023-02-15T13:12:32.707Z,99229.52
2023-02-15T13:15:05.124Z,99185.40
2023-02-15T13:17:35.271Z,99193.04
2023-02-15T13:20:09.811Z,99207.92
2023-02-15T13:22:43.392Z,99206.80
2023-02-15T13:25:18.996Z,99197.26
2023-02-15T13:27:52.761Z,99208.20
2023-02-15T13:30:27.493Z,99184.79
2023-02-15T13:33:04.946Z,99157.36
2023-02-15T13:35:42.704Z,99145.92
2023-02-15T13:38:28.239Z,99112.87
2023-02-15T13:41:04.227Z,99100.48
2023-02-15T13:43:46.799Z,99105.34
2023-02-15T13:46:25.785Z,99114.87
2023-02-15T13:49:07.371Z,99110.13
2023-02-15T13:51:42.567Z,99095.45
2023-02-15T13:54:37.814Z,99095.15
2023-02-15T13:57:26.261Z,99091.63
2023-02-15T14:00:10.319Z,99089.20
2023-02-15T14:03:19.368Z,99096.78
2023-02-15T14:06:04.344Z,99097.78
2023-02-15T14:08:52.130Z,99095.64
2023-02-15T14:11:28.407Z,99095.36
2023-02-15T14:14:41.099Z,99092.91
2023-02-15T14:17:23.634Z,99090.02
2023-02-15T14:19:58.391Z,99093.29
2023-02-15T14:22:36.956Z,99090.30
2023-02-15T14:25:18.944Z,99085.39
2023-02-15T14:27:57.396Z,99079.23
2023-02-15T14:30:30.562Z,99081.86
2023-02-15T14:33:06.841Z,99085.21
2023-02-15T14:35:36.932Z,99080.09
2023-02-15T14:38:16.167Z,99080.98
2023-02-15T14:41:02.591Z,99086.80
2023-02-15T14:43:42.043Z,99094.60
2023-02-15T14:46:19.637Z,99090.29
2023-02-15T14:48:51.478Z,99084.89
2023-02-15T14:51:58.396Z,99084.63
2023-02-15T14:54:59.075Z,99091.64
2023-02-15T14:57:34.863Z,99093.98
2023-02-15T15:00:34.610Z,99096.55
2023-02-15T15:03:10.946Z,99094.09
2023-02-15T15:05:50.655Z,99092.73
2023-02-15T15:08:29.861Z,99090.11
2023-02-15T15:11:44.201Z,99090.84
2023-02-15T15:14:41.919Z,99097.36
2023-02-15T15:17:38.157Z,99100.02
2023-02-15T15:20:14.106Z,99098.02
2023-02-15T15:22:44.009Z,99101.13
2023-02-15T15:25:35.198Z,99105.55
2023-02-15T15:28:04.906Z,99115.36
2023-02-15T15:30:54.949Z,99122.36
2023-02-15T15:34:07.097Z,99129.42
2023-02-15T15:37:08.066Z,99132.31
2023-02-15T15:40:10.866Z,99138.84
2023-02-15T15:42:50.704Z,99150.17
2023-02-15T15:45:55.108Z,99159.29
2023-02-15T15:48:31.914Z,99167.05
2023-02-15T15:51:04.324Z,99168.27
2023-02-15T15:53:41.654Z,99172.21
2023-02-15T15:56:16.451Z,99174.48
2023-02-15T15:58:50.308Z,99179.73
2023-02-15T16:01:27.277Z,99186.44
2023-02-15T16:03:57.879Z,99190.54
2023-02-15T16:06:33.942Z,99201.52
2023-02-15T16:09:18.930Z,99209.41
2023-02-15T16:11:51.446Z,99213.25
2023-02-15T16:14:27.571Z,99219.90
2023-02-15T16:16:59.060Z,99223.48
2023-02-15T16:19:31.687Z,99228.46
2023-02-15T16:22:03.199Z,99234.05
2023-02-15T16:24:49.973Z,99238.30
2023-02-15T16:27:32.077Z,99245.30
2023-02-15T16:30:19.093Z,99257.79
2023-02-15T16:32:48.518Z,99259.29
2023-02-15T16:35:22.607Z,99263.52
2023-02-15T16:37:58.934Z,99269.15
2023-02-15T16:40:36.683Z,99276.67
2023-02-15T16:43:12.533Z,99279.22
2023-02-15T16:45:41.616Z,99289.02
2023-02-15T16:48:19.437Z,99289.54
2023-02-15T16:50:55.512Z,99300.73
2023-02-15T16:53:27.284Z,99300.91
2023-02-15T16:55:58.718Z,99311.88
2023-02-15T16:58:36.932Z,99318.17
2023-02-15T17:01:09.603Z,99318.17
2023-02-15T17:03:39.861Z,99325.64
2023-02-15T17:06:22.085Z,99330.45
2023-02-15T17:08:51.193Z,99336.02
2023-02-15T17:11:22.139Z,99339.77
2023-02-15T17:14:14.811Z,99342.41
2023-02-15T17:16:49.410Z,99351.05
2023-02-15T17:19:21.708Z,99359.20
2023-02-15T17:21:53.547Z,99362.70
2023-02-15T17:24:36.588Z,99365.24
2023-02-15T17:27:12.862Z,99370.59
2023-02-15T17:29:45.521Z,99376.36
2023-02-15T17:32:19.665Z,99381.44
2023-02-15T17:35:17.620Z,99384.02
2023-02-15T17:37:49.157Z,99387.04
2023-02-15T17:40:25.515Z,99388.89
2023-02-15T17:46:07.771Z,99395.72
2023-02-15T17:48:43.377Z,99397.86
2023-02-15T17:51:17.463Z,99401.29
2023-02-15T17:54:04.274Z,99400.61
2023-02-15T17:56:38.178Z,99403.25
2023-02-15T17:59:12.607Z,99400.08
2023-02-15T18:02:07.271Z,99400.66
2023-02-15T18:04:58.069Z,99398.21
2023-02-15T18:07:49.102Z,99401.99
2023-02-15T18:10:39.744Z,99406.71
2023-02-15T18:13:12.188Z,99411.16
2023-02-15T18:15:44.550Z,99419.77
2023-02-15T18:18:16.979Z,99422.12
2023-02-15T18:20:49.364Z,99425.69
2023-02-15T18:23:21.673Z,99424.16
2023-02-15T18:25:53.977Z,99420.91
2023-02-15T18:28:26.255Z,99418.91
2023-02-15T18:31:01.917Z,99415.45
2023-02-15T18:33:40.463Z,99415.88
2023-02-15T18:36:19.703Z,99420.98
2023-02-15T18:38:53.631Z,99417.77
2023-02-15T18:41:26.657Z,99411.98
2023-02-15T18:43:58.832Z,99410.98
2023-02-15T18:46:31.003Z,99415.16
2023-02-15T18:49:03.183Z,99413.16
2023-02-15T18:51:40.434Z,99413.92
2023-02-15T18:54:21.550Z,99410.34
2023-02-15T18:56:57.595Z,99403.48
2023-02-15T18:59:32.633Z,99398.91
2023-02-15T19:02:07.225Z,99404.14
2023-02-15T19:04:39.531Z,99397.88
2023-02-15T19:07:18.664Z,99388.39
2023-02-15T19:09:54.170Z,99381.29
2023-02-15T19:12:27.435Z,99385.95
2023-02-15T19:15:00.103Z,99372.19
2023-02-15T19:17:32.493Z,99363.56
2023-02-15T19:20:04.686Z,99355.09
2023-02-15T19:22:36.997Z,99355.63
2023-02-15T19:25:14.990Z,99357.70
2023-02-15T19:27:50.520Z,99349.45
2023-02-15T19:30:29.970Z,99336.42
2023-02-15T19:33:05.149Z,99329.05
2023-02-15T19:35:38.346Z,99327.21
2023-02-15T19:38:17.354Z,99328.55
2023-02-15T19:40:50.412Z,99320.31
2023-02-15T19:43:27.913Z,99320.77
2023-02-15T19:46:00.171Z,99323.15
2023-02-15T19:48:32.841Z,99316.48
2023-02-15T19:51:05.226Z,99319.80
2023-02-15T19:53:37.462Z,99315.13
2023-02-15T19:56:14.167Z,99307.77
2023-02-15T19:58:46.314Z,99306.71
2023-02-15T20:01:19.411Z,99305.13
2023-02-15T20:03:52.232Z,99302.64
2023-02-15T20:06:24.476Z,99296.16
2023-02-15T20:08:57.093Z,99286.55
2023-02-15T20:11:29.326Z,99285.10
2023-02-15T20:14:01.518Z,99284.55
2023-02-15T20:16:33.756Z,99281.77
2023-02-15T20:19:06.507Z,99283.56
2023-02-15T20:21:39.274Z,99278.40
2023-02-15T20:24:17.948Z,99289.08
2023-02-15T20:26:50.445Z,99285.87
2023-02-15T20:29:23.175Z,99284.89
2023-02-15T20:31:55.861Z,99282.16
2023-02-15T20:34:28.239Z,99277.73
2023-02-15T20:37:00.921Z,99274.54
2023-02-15T20:39:35.001Z,99276.42
2023-02-15T20:42:07.553Z,99280.27
2023-02-15T20:44:41.238Z,99279.67
2023-02-15T20:47:16.575Z,99272.65
2023-02-15T20:49:48.972Z,99272.77
2023-02-15T20:52:22.205Z,99268.66
2023-02-15T20:54:54.673Z,99268.05
2023-02-15T20:57:26.971Z,99261.44
2023-02-15T20:59:59.564Z,99255.29
2023-02-15T21:02:31.897Z,99262.13
2023-02-15T21:05:04.818Z,99263.85
2023-02-15T21:07:38.454Z,99258.96
2023-02-15T21:10:16.993Z,99260.83
2023-02-15T21:12:51.012Z,99267.92
2023-02-15T21:15:32.978Z,99258.66
2023-02-15T21:18:08.203Z,99256.35
2023-02-15T21:20:46.547Z,99256.47
2023-02-15T21:23:22.322Z,99261.79
2023-02-15T21:25:55.471Z,99257.67
2023-02-15T21:28:29.130Z,99255.48
2023-02-15T21:31:02.304Z,99259.77
2023-02-15T21:33:35.155Z,99251.81
2023-02-15T21:36:14.238Z,99251.51
2023-02-15T21:38:47.066Z,99252.13
2023-02-15T21:41:41.884Z,99255.46
2023-02-15T21:44:38.349Z,99247.87
2023-02-15T21:47:39.047Z,99244.39
2023-02-15T21:50:31.676Z,99250.66
2023-02-15T21:53:05.228Z,99243.86
2023-02-15T21:55:37.525Z,99241.61
2023-02-15T21:58:16.138Z,99236.80
2023-02-15T22:00:49.481Z,99236.83
2023-02-15T22:03:22.239Z,99230.67
2023-02-15T22:05:54.645Z,99228.85
2023-02-15T22:08:26.808Z,99225.42
2023-02-15T22:10:59.502Z,99219.87
2023-02-15T22:13:34.262Z,99219.09
2023-02-15T22:16:07.098Z,99228.66
2023-02-15T22:18:39.271Z,99230.74
2023-02-15T22:21:12.219Z,99228.66
2023-02-15T22:23:44.478Z,99229.24
2023-02-15T22:26:23.845Z,99228.55
2023-02-15T22:28:57.925Z,99232.55
2023-02-15T22:31:30.946Z,99224.64
2023-02-15T22:34:05.830Z,99222.57
2023-02-15T22:36:38.244Z,99226.23
2023-02-15T22:39:10.537Z,99223.77
2023-02-15T22:41:42.960Z,99221.70
2023-02-15T22:44:18.875Z,99226.02
2023-02-15T22:46:51.460Z,99220.36
2023-02-15T22:49:24.101Z,99213.80
2023-02-15T22:51:56.466Z,99211.37
2023-02-15T22:54:28.743Z,99208.10
2023-02-15T22:57:01.532Z,99210.70
2023-02-15T22:59:34.377Z,99209.16
2023-02-15T23:02:07.680Z,99212.56
2023-02-15T23:04:39.888Z,99214.65
2023-02-15T23:07:16.444Z,99211.46
2023-02-15T23:09:49.149Z,99205.52
2023-02-15T23:12:28.215Z,99199.73
2023-02-15T23:15:00.699Z,99196.37
2023-02-15T23:17:33.127Z,99193.63
2023-02-15T23:20:05.931Z,99191.55
2023-02-15T23:22:38.383Z,99190.36
2023-02-15T23:25:13.952Z,99186.23
2023-02-15T23:27:58.542Z,99186.35
2023-02-15T23:30:30.950Z,99187.46
2023-02-15T23:33:03.422Z,99189.25
2023-02-15T23:35:35.875Z,99188.65
2023-02-15T23:38:13.508Z,99191.36
2023-02-15T23:41:05.370Z,99182.79
2023-02-15T23:43:38.676Z,99180.63
2023-02-15T23:46:18.611Z,99176.17
2023-02-15T23:48:51.180Z,99178.40
2023-02-15T23:51:32.992Z,99178.30
2023-02-15T23:54:05.536Z,99174.02
2023-02-15T23:56:42.311Z,99168.98
2023-02-15T23:59:19.293Z,99170.75
